Melrose Vista, Florida
Current Conditions -  °F | °C
As of 5:53 AM on Friday 31 Oct 2014 (Local Time) from KFLL Reporting Station
Clear Clear  
Wind Chill: 73°   Ceiling: Unl
Heat Index: 73°   Visibility: 10mi
Dew Point: 69°   Wind: 6mph
Humidity: 87%   Direction: 280°W
Pressure: 29.82"   Gusts: NA
Location:  26.0861°N, 80.1822°W
Report Text: KFLL 310953Z 28005KT 10SM CLR 23/21 A2982 RMK AO2 SLP097 T02280206
Loading
Personal Weather Stations






























Interactive Weather Map
Tropical Storm Tracking
New forecast layout! Learn more

10-Day Weather Forecast

Advertisements
Track Severe Weather on mobile